sensor_id;sensor_type;location;lat;lon;timestamp;pressure;altitude;pressure_sealevel;temperature;humidity
23427;BME280;41148;45.420;10.952;2023-03-20T00:02:21;101116.25;;;10.84;90.78
23427;BME280;41148;45.420;10.952;2023-03-20T00:04:49;101114.84;;;10.68;91.13
23427;BME280;41148;45.420;10.952;2023-03-20T00:07:17;101116.81;;;10.58;91.79
23427;BME280;41148;45.420;10.952;2023-03-20T00:09:44;101116.84;;;10.57;91.32
23427;BME280;41148;45.420;10.952;2023-03-20T00:12:19;101109.69;;;10.59;90.93
23427;BME280;41148;45.420;10.952;2023-03-20T00:14:49;101110.00;;;10.45;91.69
23427;BME280;41148;45.420;10.952;2023-03-20T00:17:20;101105.63;;;10.43;91.83
23427;BME280;41148;45.420;10.952;2023-03-20T00:19:48;101114.66;;;10.36;92.25
23427;BME280;41148;45.420;10.952;2023-03-20T00:22:16;101113.03;;;10.27;92.66
23427;BME280;41148;45.420;10.952;2023-03-20T00:24:44;101116.66;;;10.23;93.27
23427;BME280;41148;45.420;10.952;2023-03-20T00:27:13;101112.28;;;10.19;93.20
23427;BME280;41148;45.420;10.952;2023-03-20T00:29:46;101115.66;;;10.28;91.83
23427;BME280;41148;45.420;10.952;2023-03-20T00:32:15;101115.75;;;10.25;89.30
23427;BME280;41148;45.420;10.952;2023-03-20T00:34:45;101112.91;;;10.35;87.86
23427;BME280;41148;45.420;10.952;2023-03-20T00:37:13;101106.69;;;10.32;87.70
23427;BME280;41148;45.420;10.952;2023-03-20T00:39:59;101121.34;;;10.09;88.53
23427;BME280;41148;45.420;10.952;2023-03-20T00:42:26;101101.44;;;9.82;89.62
23427;BME280;41148;45.420;10.952;2023-03-20T00:44:54;101117.44;;;9.80;90.05
23427;BME280;41148;45.420;10.952;2023-03-20T00:47:24;101111.06;;;9.89;89.39
23427;BME280;41148;45.420;10.952;2023-03-20T00:49:53;101100.44;;;9.89;88.30
23427;BME280;41148;45.420;10.952;2023-03-20T00:52:22;101103.69;;;10.04;87.75
23427;BME280;41148;45.420;10.952;2023-03-20T00:54:51;101095.00;;;9.95;87.41
23427;BME280;41148;45.420;10.952;2023-03-20T00:57:25;101103.94;;;9.91;87.59
23427;BME280;41148;45.420;10.952;2023-03-20T01:02:27;101099.38;;;9.97;87.84
23427;BME280;41148;45.420;10.952;2023-03-20T01:04:59;101099.47;;;9.94;87.22
23427;BME280;41148;45.420;10.952;2023-03-20T01:07:28;101103.88;;;9.95;86.49
23427;BME280;41148;45.420;10.952;2023-03-20T01:09:56;101107.22;;;10.03;86.79
23427;BME280;41148;45.420;10.952;2023-03-20T01:12:23;101113.41;;;10.07;86.26
23427;BME280;41148;45.420;10.952;2023-03-20T01:14:54;101101.97;;;10.00;89.32
23427;BME280;41148;45.420;10.952;2023-03-20T01:17:24;101105.91;;;9.80;90.63
23427;BME280;41148;45.420;10.952;2023-03-20T01:19:52;101091.91;;;9.70;90.11
23427;BME280;41148;45.420;10.952;2023-03-20T01:22:20;101102.59;;;9.68;90.37
23427;BME280;41148;45.420;10.952;2023-03-20T01:24:47;101085.13;;;9.52;90.28
23427;BME280;41148;45.420;10.952;2023-03-20T01:27:33;101101.72;;;9.65;89.79
23427;BME280;41148;45.420;10.952;2023-03-20T01:30:01;101100.75;;;9.70;89.02
23427;BME280;41148;45.420;10.952;2023-03-20T01:32:30;101105.25;;;9.68;88.52
23427;BME280;41148;45.420;10.952;2023-03-20T01:34:58;101105.19;;;9.71;87.92
23427;BME280;41148;45.420;10.952;2023-03-20T01:37:29;101094.66;;;9.65;86.63
23427;BME280;41148;45.420;10.952;2023-03-20T01:40:01;101086.13;;;9.46;87.10
23427;BME280;41148;45.420;10.952;2023-03-20T01:42:32;101077.00;;;9.60;86.96
23427;BME280;41148;45.420;10.952;2023-03-20T01:44:59;101076.88;;;9.67;86.26
23427;BME280;41148;45.420;10.952;2023-03-20T01:47:28;101076.72;;;9.77;86.04
23427;BME280;41148;45.420;10.952;2023-03-20T01:50:18;101089.16;;;9.76;85.67
23427;BME280;41148;45.420;10.952;2023-03-20T01:52:52;101080.25;;;9.77;86.34
23427;BME280;41148;45.420;10.952;2023-03-20T01:55:20;101092.75;;;9.72;85.68
23427;BME280;41148;45.420;10.952;2023-03-20T01:57:55;101065.13;;;9.79;85.38
23427;BME280;41148;45.420;10.952;2023-03-20T02:00:24;101069.53;;;9.80;85.62
23427;BME280;41148;45.420;10.952;2023-03-20T02:02:52;101083.88;;;9.71;86.16
23427;BME280;41148;45.420;10.952;2023-03-20T02:05:39;101068.91;;;9.67;85.75
23427;BME280;41148;45.420;10.952;2023-03-20T02:08:27;101073.53;;;9.55;86.10
23427;BME280;41148;45.420;10.952;2023-03-20T02:11:00;101070.03;;;9.53;86.13
23427;BME280;41148;45.420;10.952;2023-03-20T02:13:30;101082.41;;;9.55;86.18
23427;BME280;41148;45.420;10.952;2023-03-20T02:16:05;101071.75;;;9.57;85.57
23427;BME280;41148;45.420;10.952;2023-03-20T02:19:05;101079.78;;;9.54;85.59
23427;BME280;41148;45.420;10.952;2023-03-20T02:25:08;101088.63;;;9.56;86.19
23427;BME280;41148;45.420;10.952;2023-03-20T02:28:18;101075.34;;;9.53;85.54
23427;BME280;41148;45.420;10.952;2023-03-20T02:31:24;101077.50;;;9.31;87.15
23427;BME280;41148;45.420;10.952;2023-03-20T02:54:40;101063.03;;;9.49;87.70
23427;BME280;41148;45.420;10.952;2023-03-20T03:00:25;101057.44;;;9.62;87.05
23427;BME280;41148;45.420;10.952;2023-03-20T03:03:06;101055.84;;;9.54;87.50
23427;BME280;41148;45.420;10.952;2023-03-20T03:05:46;101053.31;;;9.48;87.48
23427;BME280;41148;45.420;10.952;2023-03-20T03:08:17;101049.69;;;9.50;87.38
23427;BME280;41148;45.420;10.952;2023-03-20T03:10:55;101045.94;;;9.62;86.87
23427;BME280;41148;45.420;10.952;2023-03-20T03:13:27;101053.84;;;9.65;87.04
23427;BME280;41148;45.420;10.952;2023-03-20T03:16:00;101055.09;;;9.47;88.24
23427;BME280;41148;45.420;10.952;2023-03-20T03:18:34;101051.44;;;9.51;87.77
23427;BME280;41148;45.420;10.952;2023-03-20T03:21:06;101030.19;;;9.51;88.39
23427;BME280;41148;45.420;10.952;2023-03-20T03:23:43;101044.31;;;9.53;87.82
23427;BME280;41148;45.420;10.952;2023-03-20T03:26:20;101052.44;;;9.47;88.45
23427;BME280;41148;45.420;10.952;2023-03-20T03:28:54;101045.75;;;9.22;88.57
23427;BME280;41148;45.420;10.952;2023-03-20T03:31:23;101044.81;;;9.24;88.46
23427;BME280;41148;45.420;10.952;2023-03-20T03:33:54;101038.81;;;9.13;88.62
23427;BME280;41148;45.420;10.952;2023-03-20T03:36:46;101046.72;;;9.17;88.08
23427;BME280;41148;45.420;10.952;2023-03-20T03:39:48;101051.09;;;9.20;88.14
23427;BME280;41148;45.420;10.952;2023-03-20T03:42:38;101052.06;;;9.14;88.46
23427;BME280;41148;45.420;10.952;2023-03-20T03:45:12;101043.22;;;9.14;88.00
23427;BME280;41148;45.420;10.952;2023-03-20T03:47:45;101037.19;;;9.04;87.67
23427;BME280;41148;45.420;10.952;2023-03-20T03:50:21;101056.75;;;9.00;88.05
23427;BME280;41148;45.420;10.952;2023-03-20T03:52:51;101051.56;;;8.91;87.17
23427;BME280;41148;45.420;10.952;2023-03-20T03:55:23;101065.50;;;9.05;85.96
23427;BME280;41148;45.420;10.952;2023-03-20T03:58:05;101060.91;;;9.15;85.13
23427;BME280;41148;45.420;10.952;2023-03-20T04:00:36;101051.56;;;8.91;86.50
23427;BME280;41148;45.420;10.952;2023-03-20T04:03:07;101052.63;;;8.79;86.52
23427;BME280;41148;45.420;10.952;2023-03-20T04:05:40;101037.34;;;8.94;86.07
23427;BME280;41148;45.420;10.952;2023-03-20T04:08:08;101033.72;;;9.01;85.74
23427;BME280;41148;45.420;10.952;2023-03-20T04:10:36;101047.94;;;8.95;86.22
23427;BME280;41148;45.420;10.952;2023-03-20T04:13:07;101044.66;;;8.78;87.58
23427;BME280;41148;45.420;10.952;2023-03-20T04:15:34;101053.34;;;8.91;87.56
23427;BME280;41148;45.420;10.952;2023-03-20T04:18:04;101041.88;;;8.87;87.77
23427;BME280;41148;45.420;10.952;2023-03-20T04:20:32;101035.56;;;8.94;87.40
23427;BME280;41148;45.420;10.952;2023-03-20T04:23:00;101042.84;;;8.83;87.94
23427;BME280;41148;45.420;10.952;2023-03-20T04:25:28;101036.47;;;8.93;87.18
23427;BME280;41148;45.420;10.952;2023-03-20T04:27:57;101042.47;;;9.06;86.95
23427;BME280;41148;45.420;10.952;2023-03-20T04:30:55;101038.91;;;9.08;87.03
23427;BME280;41148;45.420;10.952;2023-03-20T04:33:41;101038.78;;;9.14;86.40
23427;BME280;41148;45.420;10.952;2023-03-20T04:36:21;101041.75;;;8.98;87.73
23427;BME280;41148;45.420;10.952;2023-03-20T04:38:51;101035.81;;;8.79;88.31
23427;BME280;41148;45.420;10.952;2023-03-20T04:41:18;101040.22;;;8.81;87.70
23427;BME280;41148;45.420;10.952;2023-03-20T04:43:51;101033.94;;;8.85;87.34
23427;BME280;41148;45.420;10.952;2023-03-20T04:46:18;101031.50;;;8.72;87.69
23427;BME280;41148;45.420;10.952;2023-03-20T04:48:45;101041.81;;;8.92;87.31
23427;BME280;41148;45.420;10.952;2023-03-20T04:51:13;101024.47;;;8.66;87.92
23427;BME280;41148;45.420;10.952;2023-03-20T04:53:48;101045.47;;;8.84;87.46
23427;BME280;41148;45.420;10.952;2023-03-20T04:56:17;101046.25;;;8.91;86.80
23427;BME280;41148;45.420;10.952;2023-03-20T04:58:46;101046.22;;;8.93;86.83
23427;BME280;41148;45.420;10.952;2023-03-20T05:01:16;101041.09;;;8.82;87.44
23427;BME280;41148;45.420;10.952;2023-03-20T05:03:43;101043.66;;;8.88;87.28
23427;BME280;41148;45.420;10.952;2023-03-20T05:06:10;101044.41;;;8.95;86.85
23427;BME280;41148;45.420;10.952;2023-03-20T05:08:41;101055.09;;;8.92;86.94
23427;BME280;41148;45.420;10.952;2023-03-20T05:11:09;101052.41;;;8.93;87.08
23427;BME280;41148;45.420;10.952;2023-03-20T05:14:08;101052.38;;;8.95;86.81
23427;BME280;41148;45.420;10.952;2023-03-20T05:17:00;101047.03;;;8.99;86.92
23427;BME280;41148;45.420;10.952;2023-03-20T05:19:46;101051.47;;;8.96;87.36
23427;BME280;41148;45.420;10.952;2023-03-20T05:22:25;101052.50;;;8.87;87.88
23427;BME280;41148;45.420;10.952;2023-03-20T05:25:05;101048.34;;;8.71;88.03
23427;BME280;41148;45.420;10.952;2023-03-20T05:27:48;101054.47;;;8.74;88.22
23427;BME280;41148;45.420;10.952;2023-03-20T05:30:37;101058.25;;;8.58;89.20
23427;BME280;41148;45.420;10.952;2023-03-20T05:33:23;101064.69;;;8.39;89.72
23427;BME280;41148;45.420;10.952;2023-03-20T05:36:13;101059.78;;;8.05;91.43
23427;BME280;41148;45.420;10.952;2023-03-20T05:38:51;101065.16;;;7.97;91.94
23427;BME280;41148;45.420;10.952;2023-03-20T05:41:33;101069.63;;;7.95;92.55
23427;BME280;41148;45.420;10.952;2023-03-20T05:44:21;101068.69;;;8.01;91.52
23427;BME280;41148;45.420;10.952;2023-03-20T05:46:57;101075.59;;;8.14;90.82
23427;BME280;41148;45.420;10.952;2023-03-20T05:49:42;101075.72;;;8.05;91.11
23427;BME280;41148;45.420;10.952;2023-03-20T05:52:18;101075.75;;;8.02;90.93
23427;BME280;41148;45.420;10.952;2023-03-20T05:55:06;101073.09;;;8.00;91.58
23427;BME280;41148;45.420;10.952;2023-03-20T05:57:41;101084.41;;;8.16;90.27
23427;BME280;41148;45.420;10.952;2023-03-20T06:00:38;101095.03;;;8.16;90.12
23427;BME280;41148;45.420;10.952;2023-03-20T06:03:23;101097.84;;;8.02;91.08
23427;BME280;41148;45.420;10.952;2023-03-20T06:06:02;101101.19;;;8.21;90.10
23427;BME280;41148;45.420;10.952;2023-03-20T06:08:30;101099.31;;;8.28;89.16
23427;BME280;41148;45.420;10.952;2023-03-20T06:10:59;101100.19;;;8.28;89.50
23427;BME280;41148;45.420;10.952;2023-03-20T06:13:27;101113.38;;;8.41;88.85
23427;BME280;41148;45.420;10.952;2023-03-20T06:15:55;101117.63;;;8.52;88.22
23427;BME280;41148;45.420;10.952;2023-03-20T06:18:22;101125.53;;;8.57;87.73
23427;BME280;41148;45.420;10.952;2023-03-20T06:20:54;101128.34;;;8.45;88.64
23427;BME280;41148;45.420;10.952;2023-03-20T06:23:23;101141.47;;;8.57;88.43
23427;BME280;41148;45.420;10.952;2023-03-20T06:25:50;101139.69;;;8.60;88.55
23427;BME280;41148;45.420;10.952;2023-03-20T06:28:19;101135.16;;;8.69;88.02
23427;BME280;41148;45.420;10.952;2023-03-20T06:30:54;101136.69;;;8.83;87.88
23427;BME280;41148;45.420;10.952;2023-03-20T06:33:22;101138.56;;;8.75;88.55
23427;BME280;41148;45.420;10.952;2023-03-20T06:35:57;101137.53;;;8.88;87.29
23427;BME280;41148;45.420;10.952;2023-03-20T06:38:26;101135.66;;;8.94;87.16
23427;BME280;41148;45.420;10.952;2023-03-20T06:40:53;101131.94;;;9.07;86.55
23427;BME280;41148;45.420;10.952;2023-03-20T06:43:22;101138.94;;;9.12;86.07
23427;BME280;41148;45.420;10.952;2023-03-20T06:45:51;101141.38;;;9.28;85.39
23427;BME280;41148;45.420;10.952;2023-03-20T06:48:21;101142.44;;;9.14;85.57
23427;BME280;41148;45.420;10.952;2023-03-20T06:50:50;101142.44;;;9.17;85.35
23427;BME280;41148;45.420;10.952;2023-03-20T06:53:23;101140.53;;;9.24;85.73
23427;BME280;41148;45.420;10.952;2023-03-20T06:56:02;101151.94;;;9.32;85.33
23427;BME280;41148;45.420;10.952;2023-03-20T06:58:29;101141.63;;;9.65;84.18
23427;BME280;41148;45.420;10.952;2023-03-20T07:00:57;101154.84;;;9.71;84.37
23427;BME280;41148;45.420;10.952;2023-03-20T07:03:24;101145.03;;;9.74;83.70
23427;BME280;41148;45.420;10.952;2023-03-20T07:05:53;101139.88;;;10.15;82.85
23427;BME280;41148;45.420;10.952;2023-03-20T07:08:22;101145.66;;;10.80;79.56
23427;BME280;41148;45.420;10.952;2023-03-20T07:10:49;101139.47;;;11.20;77.76
23427;BME280;41148;45.420;10.952;2023-03-20T07:13:19;101150.47;;;11.04;78.27
23427;BME280;41148;45.420;10.952;2023-03-20T07:15:47;101147.81;;;11.04;78.47
23427;BME280;41148;45.420;10.952;2023-03-20T07:18:33;101144.09;;;11.11;78.43
23427;BME280;41148;45.420;10.952;2023-03-20T07:21:02;101142.84;;;10.87;79.95
23427;BME280;41148;45.420;10.952;2023-03-20T07:23:31;101151.88;;;10.82;80.63
23427;BME280;41148;45.420;10.952;2023-03-20T07:26:02;101140.75;;;10.60;81.65
23427;BME280;41148;45.420;10.952;2023-03-20T07:28:30;101143.28;;;10.68;81.80
23427;BME280;41148;45.420;10.952;2023-03-20T07:31:25;101147.75;;;10.66;82.00
23427;BME280;41148;45.420;10.952;2023-03-20T07:34:01;101143.00;;;10.81;81.31
23427;BME280;41148;45.420;10.952;2023-03-20T07:36:29;101148.75;;;10.62;81.89
23427;BME280;41148;45.420;10.952;2023-03-20T07:38:56;101145.91;;;10.69;81.22
23427;BME280;41148;45.420;10.952;2023-03-20T07:41:26;101149.56;;;10.65;81.41
23427;BME280;41148;45.420;10.952;2023-03-20T07:44:06;101151.06;;;10.77;80.91
23427;BME280;41148;45.420;10.952;2023-03-20T07:46:52;101153.47;;;10.91;80.87
23427;BME280;41148;45.420;10.952;2023-03-20T07:49:22;101147.78;;;11.06;80.44
23427;BME280;41148;45.420;10.952;2023-03-20T07:54:53;101150.81;;;11.29;80.34
23427;BME280;41148;45.420;10.952;2023-03-20T07:57:21;101154.34;;;11.65;78.94
23427;BME280;41148;45.420;10.952;2023-03-20T07:59:48;101148.47;;;11.87;79.30
23427;BME280;41148;45.420;10.952;2023-03-20T08:02:16;101154.22;;;12.06;79.10
23427;BME280;41148;45.420;10.952;2023-03-20T08:04:44;101141.06;;;11.99;78.72
23427;BME280;41148;45.420;10.952;2023-03-20T08:07:12;101152.03;;;12.21;78.45
23427;BME280;41148;45.420;10.952;2023-03-20T08:09:40;101141.66;;;12.42;77.74
23427;BME280;41148;45.420;10.952;2023-03-20T08:12:07;101144.56;;;12.65;77.43
23427;BME280;41148;45.420;10.952;2023-03-20T08:14:35;101146.63;;;12.55;77.70
23427;BME280;41148;45.420;10.952;2023-03-20T08:17:04;101143.75;;;12.61;78.13
23427;BME280;41148;45.420;10.952;2023-03-20T08:19:42;101162.41;;;12.94;77.52
23427;BME280;41148;45.420;10.952;2023-03-20T08:22:09;101157.06;;;12.94;78.98
23427;BME280;41148;45.420;10.952;2023-03-20T08:24:37;101158.06;;;13.20;76.74
23427;BME280;41148;45.420;10.952;2023-03-20T08:27:04;101161.34;;;13.00;76.94
23427;BME280;41148;45.420;10.952;2023-03-20T08:29:32;101159.31;;;13.08;76.78
23427;BME280;41148;45.420;10.952;2023-03-20T08:31:59;101146.44;;;13.22;75.74
23427;BME280;41148;45.420;10.952;2023-03-20T08:34:27;101160.47;;;13.29;76.54
23427;BME280;41148;45.420;10.952;2023-03-20T08:36:54;101156.97;;;13.27;76.78
23427;BME280;41148;45.420;10.952;2023-03-20T08:39:22;101151.28;;;13.37;75.98
23427;BME280;41148;45.420;10.952;2023-03-20T08:41:49;101145.09;;;13.35;74.72
23427;BME280;41148;45.420;10.952;2023-03-20T08:44:17;101139.72;;;13.63;73.82
23427;BME280;41148;45.420;10.952;2023-03-20T08:46:44;101149.88;;;13.80;73.72
23427;BME280;41148;45.420;10.952;2023-03-20T08:49:12;101155.97;;;13.84;73.48
23427;BME280;41148;45.420;10.952;2023-03-20T08:51:40;101145.47;;;14.04;73.35
23427;BME280;41148;45.420;10.952;2023-03-20T08:54:09;101143.22;;;14.17;69.72
23427;BME280;41148;45.420;10.952;2023-03-20T08:56:36;101144.13;;;14.16;70.00
23427;BME280;41148;45.420;10.952;2023-03-20T08:59:03;101153.78;;;14.21;70.25
23427;BME280;41148;45.420;10.952;2023-03-20T09:01:31;101143.13;;;14.20;70.02
23427;BME280;41148;45.420;10.952;2023-03-20T09:04:16;101142.13;;;14.22;69.01
23427;BME280;41148;45.420;10.952;2023-03-20T09:06:43;101150.44;;;14.65;67.97
23427;BME280;41148;45.420;10.952;2023-03-20T09:09:11;101141.16;;;14.97;66.20
23427;BME280;41148;45.420;10.952;2023-03-20T09:11:42;101147.38;;;15.21;64.52
23427;BME280;41148;45.420;10.952;2023-03-20T09:14:09;101150.81;;;15.46;64.25
23427;BME280;41148;45.420;10.952;2023-03-20T09:16:37;101150.22;;;15.61;63.96
23427;BME280;41148;45.420;10.952;2023-03-20T09:19:04;101138.44;;;15.86;61.36
23427;BME280;41148;45.420;10.952;2023-03-20T09:21:32;101149.81;;;16.33;59.90
23427;BME280;41148;45.420;10.952;2023-03-20T09:24:00;101144.97;;;16.00;61.18
23427;BME280;41148;45.420;10.952;2023-03-20T09:26:27;101139.66;;;15.35;62.88
23427;BME280;41148;45.420;10.952;2023-03-20T09:28:54;101153.38;;;15.49;61.50
23427;BME280;41148;45.420;10.952;2023-03-20T09:31:22;101139.75;;;15.32;61.93
23427;BME280;41148;45.420;10.952;2023-03-20T09:33:50;101150.34;;;15.13;62.11
23427;BME280;41148;45.420;10.952;2023-03-20T09:36:17;101143.16;;;15.13;62.14
23427;BME280;41148;45.420;10.952;2023-03-20T09:38:45;101143.50;;;15.28;61.88
23427;BME280;41148;45.420;10.952;2023-03-20T09:41:17;101143.09;;;15.15;61.56
23427;BME280;41148;45.420;10.952;2023-03-20T09:49:31;101140.84;;;15.04;61.92
23427;BME280;41148;45.420;10.952;2023-03-20T09:55:09;101153.09;;;15.11;59.69
23427;BME280;41148;45.420;10.952;2023-03-20T09:57:46;101125.88;;;14.75;60.12
23427;BME280;41148;45.420;10.952;2023-03-20T10:00:18;101139.81;;;14.85;60.58
23427;BME280;41148;45.420;10.952;2023-03-20T10:03:00;101133.16;;;14.95;61.31
23427;BME280;41148;45.420;10.952;2023-03-20T10:05:36;101138.81;;;15.11;61.12
23427;BME280;41148;45.420;10.952;2023-03-20T10:08:06;101141.06;;;15.22;59.88
23427;BME280;41148;45.420;10.952;2023-03-20T10:10:50;101134.69;;;15.02;60.82
23427;BME280;41148;45.420;10.952;2023-03-20T10:19:11;101136.50;;;15.24;59.98
23427;BME280;41148;45.420;10.952;2023-03-20T10:21:46;101135.97;;;15.15;60.03
23427;BME280;41148;45.420;10.952;2023-03-20T10:24:19;101124.72;;;15.28;58.91
23427;BME280;41148;45.420;10.952;2023-03-20T10:26:51;101131.69;;;15.32;58.82
23427;BME280;41148;45.420;10.952;2023-03-20T10:32:25;101125.50;;;15.52;57.14
23427;BME280;41148;45.420;10.952;2023-03-20T10:40:21;101116.66;;;15.50;57.05
23427;BME280;41148;45.420;10.952;2023-03-20T10:42:52;101113.31;;;15.66;57.44
23427;BME280;41148;45.420;10.952;2023-03-20T10:45:42;101117.03;;;15.84;57.76
23427;BME280;41148;45.420;10.952;2023-03-20T10:48:28;101115.53;;;15.77;57.36
23427;BME280;41148;45.420;10.952;2023-03-20T10:50:59;101115.38;;;15.80;56.81
23427;BME280;41148;45.420;10.952;2023-03-20T10:53:46;101095.16;;;15.92;55.40
23427;BME280;41148;45.420;10.952;2023-03-20T10:56:22;101104.25;;;15.89;56.26
23427;BME280;41148;45.420;10.952;2023-03-20T10:58:57;101097.59;;;15.98;55.96
23427;BME280;41148;45.420;10.952;2023-03-20T11:01:26;101091.81;;;16.27;54.86
23427;BME280;41148;45.420;10.952;2023-03-20T11:03:53;101085.00;;;16.39;54.18
23427;BME280;41148;45.420;10.952;2023-03-20T11:06:26;101092.09;;;16.40;54.33
23427;BME280;41148;45.420;10.952;2023-03-20T11:08:54;101086.97;;;16.36;53.34
23427;BME280;41148;45.420;10.952;2023-03-20T11:11:27;101087.53;;;16.23;54.03
23427;BME280;41148;45.420;10.952;2023-03-20T11:13:56;101087.31;;;16.08;54.14
23427;BME280;41148;45.420;10.952;2023-03-20T11:16:35;101084.63;;;16.08;54.12
23427;BME280;41148;45.420;10.952;2023-03-20T11:19:09;101081.28;;;16.23;54.16
23427;BME280;41148;45.420;10.952;2023-03-20T11:21:47;101083.81;;;16.26;54.11
23427;BME280;41148;45.420;10.952;2023-03-20T11:26:52;101078.81;;;16.37;52.51
23427;BME280;41148;45.420;10.952;2023-03-20T11:29:29;101075.59;;;16.29;52.96
23427;BME280;41148;45.420;10.952;2023-03-20T11:32:27;101073.50;;;16.36;52.47
23427;BME280;41148;45.420;10.952;2023-03-20T11:35:09;101071.78;;;16.53;52.38
23427;BME280;41148;45.420;10.952;2023-03-20T11:37:44;101076.22;;;16.54;51.45
23427;BME280;41148;45.420;10.952;2023-03-20T11:42:50;101064.78;;;16.70;49.75
23427;BME280;41148;45.420;10.952;2023-03-20T11:45:18;101067.22;;;16.16;51.24
23427;BME280;41148;45.420;10.952;2023-03-20T11:47:54;101054.88;;;16.51;51.45
23427;BME280;41148;45.420;10.952;2023-03-20T11:53:03;101050.56;;;16.47;51.32
23427;BME280;41148;45.420;10.952;2023-03-20T11:55:45;101054.00;;;16.51;51.26
23427;BME280;41148;45.420;10.952;2023-03-20T11:58:24;101051.94;;;16.37;50.69
23427;BME280;41148;45.420;10.952;2023-03-20T12:00:53;101055.41;;;16.39;50.93
23427;BME280;41148;45.420;10.952;2023-03-20T12:06:17;101031.41;;;16.16;50.93
23427;BME280;41148;45.420;10.952;2023-03-20T12:08:49;101030.88;;;16.08;50.85
23427;BME280;41148;45.420;10.952;2023-03-20T12:14:07;101030.84;;;15.68;52.01
23427;BME280;41148;45.420;10.952;2023-03-20T12:16:40;101035.31;;;16.09;50.92
23427;BME280;41148;45.420;10.952;2023-03-20T12:19:15;101033.34;;;15.93;51.29
23427;BME280;41148;45.420;10.952;2023-03-20T12:22:18;101028.00;;;15.92;50.77
23427;BME280;41148;45.420;10.952;2023-03-20T12:24:46;101031.81;;;16.07;50.35
23427;BME280;41148;45.420;10.952;2023-03-20T12:27:21;101028.25;;;16.06;50.76
23427;BME280;41148;45.420;10.952;2023-03-20T12:29:57;101014.22;;;15.99;50.79
23427;BME280;41148;45.420;10.952;2023-03-20T12:35:30;101014.22;;;15.99;51.33
23427;BME280;41148;45.420;10.952;2023-03-20T12:37:59;101010.00;;;16.33;51.71
23427;BME280;41148;45.420;10.952;2023-03-20T12:40:41;101016.81;;;16.40;51.52
23427;BME280;41148;45.420;10.952;2023-03-20T12:43:26;101007.97;;;16.38;50.11
23427;BME280;41148;45.420;10.952;2023-03-20T12:49:10;101009.50;;;16.44;50.95
23427;BME280;41148;45.420;10.952;2023-03-20T12:51:56;101006.28;;;16.54;50.60
23427;BME280;41148;45.420;10.952;2023-03-20T12:54:34;101004.47;;;16.55;50.30
23427;BME280;41148;45.420;10.952;2023-03-20T13:00:18;101007.53;;;16.47;50.53
23427;BME280;41148;45.420;10.952;2023-03-20T13:03:08;101009.63;;;16.59;49.24
23427;BME280;41148;45.420;10.952;2023-03-20T13:05:54;101005.72;;;16.48;49.60
23427;BME280;41148;45.420;10.952;2023-03-20T13:13:53;101002.88;;;16.32;50.32
23427;BME280;41148;45.420;10.952;2023-03-20T13:16:34;100997.28;;;16.55;49.92
23427;BME280;41148;45.420;10.952;2023-03-20T13:19:27;100993.94;;;16.50;50.13
23427;BME280;41148;45.420;10.952;2023-03-20T13:22:07;100993.56;;;16.77;50.05
23427;BME280;41148;45.420;10.952;2023-03-20T13:27:36;100985.13;;;16.66;49.25
23427;BME280;41148;45.420;10.952;2023-03-20T13:33:05;100986.78;;;16.87;49.85
23427;BME280;41148;45.420;10.952;2023-03-20T13:38:34;100982.44;;;16.47;49.26
23427;BME280;41148;45.420;10.952;2023-03-20T13:41:06;100977.59;;;16.36;49.54
23427;BME280;41148;45.420;10.952;2023-03-20T13:43:42;100977.00;;;16.48;49.73
23427;BME280;41148;45.420;10.952;2023-03-20T13:46:24;100971.84;;;16.63;49.46
23427;BME280;41148;45.420;10.952;2023-03-20T13:48:54;100971.91;;;16.61;49.65
23427;BME280;41148;45.420;10.952;2023-03-20T13:54:12;100977.94;;;16.47;50.14
23427;BME280;41148;45.420;10.952;2023-03-20T13:56:52;100975.69;;;16.76;49.29
23427;BME280;41148;45.420;10.952;2023-03-20T14:02:22;100974.28;;;16.86;49.95
23427;BME280;41148;45.420;10.952;2023-03-20T14:05:10;100976.16;;;17.03;48.91
23427;BME280;41148;45.420;10.952;2023-03-20T14:07:41;100972.28;;;16.72;49.27
23427;BME280;41148;45.420;10.952;2023-03-20T14:13:11;100968.63;;;16.92;49.10
23427;BME280;41148;45.420;10.952;2023-03-20T14:15:37;100969.25;;;16.97;48.79
23427;BME280;41148;45.420;10.952;2023-03-20T14:18:16;100966.09;;;16.89;49.24
23427;BME280;41148;45.420;10.952;2023-03-20T14:20:53;100962.44;;;16.90;49.39
23427;BME280;41148;45.420;10.952;2023-03-20T14:23:34;100963.31;;;17.08;50.04
23427;BME280;41148;45.420;10.952;2023-03-20T14:26:29;100966.28;;;17.38;50.20
23427;BME280;41148;45.420;10.952;2023-03-20T14:29:19;100968.09;;;17.20;49.29
23427;BME280;41148;45.420;10.952;2023-03-20T14:31:48;100965.00;;;17.10;49.94
23427;BME280;41148;45.420;10.952;2023-03-20T14:34:25;100968.69;;;16.91;49.84
23427;BME280;41148;45.420;10.952;2023-03-20T14:36:59;100955.16;;;16.92;50.77
23427;BME280;41148;45.420;10.952;2023-03-20T14:39:49;100962.97;;;16.79;50.13
23427;BME280;41148;45.420;10.952;2023-03-20T14:42:27;100962.03;;;16.80;50.08
23427;BME280;41148;45.420;10.952;2023-03-20T14:48:06;100963.34;;;16.72;49.68
23427;BME280;41148;45.420;10.952;2023-03-20T14:50:47;100957.44;;;16.64;50.13
23427;BME280;41148;45.420;10.952;2023-03-20T14:53:22;100951.28;;;16.62;50.02
23427;BME280;41148;45.420;10.952;2023-03-20T14:55:51;100949.66;;;16.57;50.25
23427;BME280;41148;45.420;10.952;2023-03-20T15:01:40;100954.75;;;16.64;50.80
23427;BME280;41148;45.420;10.952;2023-03-20T15:06:44;100953.09;;;16.42;51.02
23427;BME280;41148;45.420;10.952;2023-03-20T15:09:14;100942.69;;;16.53;51.66
23427;BME280;41148;45.420;10.952;2023-03-20T15:11:42;100954.91;;;16.42;50.90